createdAt,value
2022-11-12T00:00:54.349Z,13.36
2022-11-12T00:04:17.632Z,13.29
2022-11-12T00:07:41.463Z,13.33
2022-11-12T00:11:05.006Z,13.23
2022-11-12T00:14:27.561Z,13.19
2022-11-12T00:17:50.983Z,13.13
2022-11-12T00:21:13.237Z,13.28
2022-11-12T00:24:36.593Z,13.34
2022-11-12T00:28:03.485Z,13.17
2022-11-12T00:31:25.412Z,13.28
2022-11-12T00:34:49.712Z,13.28
2022-11-12T00:38:11.854Z,13.32
2022-11-12T00:41:34.153Z,13.21
2022-11-12T00:44:55.923Z,13.28
2022-11-12T00:48:18.520Z,13.21
2022-11-12T00:51:42.849Z,13.20
2022-11-12T00:55:05.764Z,13.15
2022-11-12T00:58:29.942Z,13.08
2022-11-12T01:01:55.450Z,12.91
2022-11-12T01:05:17.686Z,13.02
2022-11-12T01:08:41.999Z,12.96
2022-11-12T01:12:04.101Z,12.96
2022-11-12T01:15:26.435Z,13.05
2022-11-12T01:18:49.571Z,13.06
2022-11-12T01:22:13.115Z,13.07
2022-11-12T01:25:38.939Z,12.95
2022-11-12T01:29:01.420Z,12.88
2022-11-12T01:32:23.319Z,12.97
2022-11-12T01:35:45.396Z,12.94
2022-11-12T01:39:08.944Z,12.95
2022-11-12T01:42:34.244Z,12.90
2022-11-12T01:45:56.858Z,12.93
2022-11-12T01:49:23.960Z,12.77
2022-11-12T01:52:50.440Z,12.80
2022-11-12T01:56:13.845Z,12.73
2022-11-12T01:59:42.496Z,12.84
2022-11-12T02:03:11.618Z,12.86
2022-11-12T02:06:34.251Z,12.85
2022-11-12T02:09:56.792Z,12.91
2022-11-12T02:13:51.485Z,12.93
2022-11-12T02:17:15.270Z,12.83
2022-11-12T02:20:38.211Z,12.86
2022-11-12T02:24:05.206Z,12.78
2022-11-12T02:27:27.207Z,12.56
2022-11-12T02:30:51.112Z,12.52
2022-11-12T02:34:12.940Z,12.57
2022-11-12T02:37:35.151Z,12.44
2022-11-12T02:40:58.373Z,12.39
2022-11-12T02:44:20.965Z,12.47
2022-11-12T02:47:43.196Z,12.52
2022-11-12T02:51:06.107Z,12.66
2022-11-12T02:54:27.939Z,12.45
2022-11-12T02:57:51.710Z,12.43
2022-11-12T03:01:13.615Z,12.42
2022-11-12T03:04:35.740Z,12.52
2022-11-12T03:08:00.248Z,12.50
2022-11-12T03:11:22.734Z,12.43
2022-11-12T03:14:46.020Z,12.18
2022-11-12T03:18:08.295Z,12.22
2022-11-12T03:21:30.398Z,12.28
2022-11-12T03:24:52.852Z,12.19
2022-11-12T03:28:16.305Z,12.26
2022-11-12T03:31:40.309Z,12.32
2022-11-12T03:35:02.111Z,12.40
2022-11-12T03:38:25.767Z,12.35
2022-11-12T03:41:48.123Z,12.24
2022-11-12T03:45:12.664Z,12.20
2022-11-12T03:48:35.871Z,12.23
2022-11-12T03:51:57.932Z,12.35
2022-11-12T03:55:22.764Z,12.28
2022-11-12T03:58:45.110Z,12.41
2022-11-12T04:02:07.052Z,12.42
2022-11-12T04:05:48.479Z,12.47
2022-11-12T04:09:10.537Z,12.48
2022-11-12T04:13:04.409Z,12.53
2022-11-12T04:16:43.669Z,12.55
2022-11-12T04:20:38.832Z,12.41
2022-11-12T04:24:02.219Z,12.41
2022-11-12T04:27:24.905Z,12.54
2022-11-12T04:30:47.062Z,12.59
2022-11-12T04:34:27.418Z,12.57
2022-11-12T04:37:49.695Z,12.51
2022-11-12T04:41:30.757Z,12.60
2022-11-12T04:45:01.552Z,12.59
2022-11-12T04:48:25.499Z,12.61
2022-11-12T04:52:06.121Z,12.57
2022-11-12T04:55:28.543Z,12.56
2022-11-12T04:58:51.688Z,12.50
2022-11-12T05:02:14.069Z,12.68
2022-11-12T05:05:36.513Z,12.51
2022-11-12T05:08:59.067Z,12.58
2022-11-12T05:12:21.175Z,12.61
2022-11-12T05:15:46.137Z,12.65
2022-11-12T05:19:08.329Z,12.63
2022-11-12T05:22:43.135Z,12.72
2022-11-12T05:26:10.218Z,12.59
2022-11-12T05:29:32.866Z,12.67
2022-11-12T05:32:56.248Z,12.64
2022-11-12T05:36:18.619Z,12.63
2022-11-12T05:39:40.497Z,12.71
2022-11-12T05:43:02.852Z,12.56
2022-11-12T05:46:25.058Z,12.61
2022-11-12T05:49:49.042Z,12.62
2022-11-12T05:53:11.180Z,12.74
2022-11-12T05:56:33.832Z,12.75
2022-11-12T05:59:55.839Z,12.63
2022-11-12T06:03:18.053Z,12.64
2022-11-12T06:06:41.907Z,12.55
2022-11-12T06:10:04.788Z,12.64
2022-11-12T06:13:27.555Z,12.67
2022-11-12T06:16:50.105Z,12.64
2022-11-12T06:20:13.543Z,12.74
2022-11-12T06:23:39.052Z,12.75
2022-11-12T06:27:01.305Z,12.85
2022-11-12T06:30:25.958Z,12.76
2022-11-12T06:33:49.102Z,12.89
2022-11-12T06:37:11.320Z,12.99
2022-11-12T06:40:35.180Z,13.02
2022-11-12T06:43:57.754Z,13.06
2022-11-12T06:47:19.891Z,12.96
2022-11-12T06:50:42.485Z,12.94
2022-11-12T06:54:05.006Z,12.96
2022-11-12T06:57:28.721Z,12.81
2022-11-12T07:00:50.495Z,12.90
2022-11-12T07:04:12.968Z,12.98
2022-11-12T07:07:34.702Z,12.93
2022-11-12T07:10:58.186Z,13.04
2022-11-12T07:14:23.448Z,13.11
2022-11-12T07:17:46.859Z,13.25
2022-11-12T07:21:11.790Z,13.34
2022-11-12T07:24:34.270Z,13.18
2022-11-12T07:27:56.334Z,13.19
2022-11-12T07:31:22.057Z,13.35
2022-11-12T07:34:43.955Z,13.34
2022-11-12T07:38:06.135Z,13.54
2022-11-12T07:41:29.565Z,13.50
2022-11-12T07:44:52.185Z,13.59
2022-11-12T07:48:15.585Z,13.62
2022-11-12T07:51:37.562Z,13.55
2022-11-12T07:54:59.418Z,13.52
2022-11-12T07:58:21.489Z,13.49
2022-11-12T08:01:43.404Z,13.58
2022-11-12T08:05:14.435Z,13.58
2022-11-12T08:08:39.485Z,13.65
2022-11-12T08:12:01.594Z,13.64
2022-11-12T08:15:24.579Z,13.63
2022-11-12T08:18:48.061Z,13.41
2022-11-12T08:22:11.117Z,13.53
2022-11-12T08:25:33.345Z,13.59
2022-11-12T08:28:55.110Z,13.33
2022-11-12T08:32:17.203Z,13.47
2022-11-12T08:35:39.268Z,13.62
2022-11-12T08:39:02.821Z,13.59
2022-11-12T08:42:25.127Z,13.65
2022-11-12T08:45:48.641Z,13.76
2022-11-12T08:49:10.835Z,13.83
2022-11-12T08:52:33.016Z,13.83
2022-11-12T08:55:57.112Z,13.93
2022-11-12T08:59:19.574Z,13.97
2022-11-12T09:02:41.577Z,13.84
2022-11-12T09:06:05.599Z,13.83
2022-11-12T09:09:27.690Z,13.83
2022-11-12T09:12:53.870Z,13.62
2022-11-12T09:16:15.643Z,13.87
2022-11-12T09:19:42.674Z,14.14
2022-11-12T09:23:08.012Z,14.20
2022-11-12T09:26:30.371Z,14.28
2022-11-12T09:29:53.699Z,14.19
2022-11-12T09:33:16.899Z,14.21
2022-11-12T09:36:40.068Z,14.41
2022-11-12T09:40:02.527Z,14.47
2022-11-12T09:43:28.988Z,14.46
2022-11-12T09:47:00.062Z,14.60
2022-11-12T09:50:26.222Z,14.73
2022-11-12T09:53:55.187Z,14.80
2022-11-12T09:57:17.538Z,14.87
2022-11-12T10:00:45.066Z,14.98
2022-11-12T10:04:38.473Z,15.07
2022-11-12T10:08:34.174Z,15.05
2022-11-12T10:12:31.299Z,14.92
2022-11-12T10:16:26.692Z,14.94
2022-11-12T10:20:02.433Z,14.69
2022-11-12T10:23:30.971Z,14.34
2022-11-12T10:26:54.509Z,14.35
2022-11-12T10:30:19.355Z,14.62
2022-11-12T10:33:41.250Z,14.20
2022-11-12T10:37:08.393Z,14.09
2022-11-12T10:40:34.742Z,14.25
2022-11-12T10:44:01.787Z,14.01
2022-11-12T10:47:29.700Z,13.80
2022-11-12T10:50:52.283Z,13.62
2022-11-12T10:54:31.014Z,13.70
2022-11-12T10:58:19.741Z,13.48
2022-11-12T11:01:45.722Z,13.63
2022-11-12T11:05:30.279Z,13.80
2022-11-12T11:08:53.922Z,14.02
2022-11-12T11:12:26.638Z,14.00
2022-11-12T11:16:01.403Z,14.02
2022-11-12T11:19:26.886Z,14.01
2022-11-12T11:22:55.545Z,14.19
2022-11-12T11:26:43.673Z,14.20
2022-11-12T11:30:11.683Z,14.36
2022-11-12T11:33:47.229Z,14.32
2022-11-12T11:37:24.799Z,14.10
2022-11-12T11:40:56.477Z,14.03
2022-11-12T11:44:27.823Z,13.99
2022-11-12T11:48:01.749Z,13.98
2022-11-12T11:51:50.133Z,13.83
2022-11-12T11:55:38.125Z,13.75
2022-11-12T11:59:15.271Z,13.86
2022-11-12T12:03:01.119Z,13.64
2022-11-12T12:06:27.505Z,13.76
2022-11-12T12:09:58.712Z,13.68
2022-11-12T12:13:31.207Z,13.93
2022-11-12T12:17:03.680Z,14.11
2022-11-12T12:20:33.910Z,14.06
2022-11-12T12:24:01.199Z,13.87
2022-11-12T12:27:27.222Z,13.58
2022-11-12T12:30:56.102Z,13.45
2022-11-12T12:34:25.134Z,13.64
2022-11-12T12:37:56.673Z,13.60
2022-11-12T12:41:27.881Z,13.54
2022-11-12T12:45:04.908Z,13.45
2022-11-12T12:48:32.771Z,13.64
2022-11-12T12:51:56.097Z,13.72
2022-11-12T12:55:44.531Z,13.76
2022-11-12T12:59:20.790Z,13.83
2022-11-12T13:02:43.035Z,13.85
2022-11-12T13:06:09.028Z,14.04
2022-11-12T13:09:30.909Z,14.07
2022-11-12T13:13:05.722Z,13.71
2022-11-12T13:16:58.225Z,13.77
2022-11-12T13:20:38.423Z,13.65
2022-11-12T13:24:08.343Z,13.79
2022-11-12T13:28:01.207Z,14.00
2022-11-12T13:31:29.993Z,13.66
2022-11-12T13:34:52.370Z,13.87
2022-11-12T13:38:16.577Z,13.76
2022-11-12T13:41:56.737Z,13.63
2022-11-12T13:45:20.990Z,13.36
2022-11-12T13:48:47.952Z,13.28
2022-11-12T13:52:10.607Z,13.19
2022-11-12T13:55:32.951Z,13.18
2022-11-12T13:58:56.315Z,13.12
2022-11-12T14:02:23.913Z,12.71
2022-11-12T14:05:51.563Z,12.80
2022-11-12T14:09:44.802Z,12.97
2022-11-12T14:13:25.202Z,13.11
2022-11-12T14:17:20.900Z,13.33
2022-11-12T14:20:44.577Z,13.52
2022-11-12T14:24:13.568Z,13.52
2022-11-12T14:27:37.376Z,13.71
2022-11-12T14:31:00.646Z,13.70
2022-11-12T14:34:23.928Z,13.79
2022-11-12T14:37:52.901Z,13.65
2022-11-12T14:41:22.940Z,13.74
2022-11-12T14:44:45.434Z,13.66
2022-11-12T14:48:10.851Z,13.67
2022-11-12T14:51:39.358Z,13.37
2022-11-12T14:55:10.939Z,13.52
2022-11-12T14:58:35.927Z,13.16
2022-11-12T15:02:29.621Z,13.23
2022-11-12T15:05:57.376Z,13.22
2022-11-12T15:09:21.974Z,13.18
2022-11-12T15:12:44.512Z,12.78
2022-11-12T15:16:10.545Z,13.14
2022-11-12T15:19:34.105Z,13.11
2022-11-12T15:22:57.031Z,13.20
2022-11-12T15:26:26.182Z,13.17
2022-11-12T15:29:51.786Z,13.07
2022-11-12T15:33:22.435Z,13.29
2022-11-12T15:36:45.000Z,13.12
2022-11-12T15:40:14.220Z,12.83
2022-11-12T15:43:42.464Z,12.90
2022-11-12T15:47:05.917Z,12.70
2022-11-12T15:50:32.237Z,12.82
2022-11-12T15:53:54.605Z,12.92
2022-11-12T15:57:18.776Z,12.78
2022-11-12T16:00:41.846Z,12.82
2022-11-12T16:04:03.735Z,12.85
2022-11-12T16:07:27.553Z,12.88
2022-11-12T16:10:51.036Z,12.81
2022-11-12T16:14:15.562Z,12.86
2022-11-12T16:17:38.139Z,12.63
2022-11-12T16:21:00.662Z,12.75
2022-11-12T16:24:24.257Z,12.81
2022-11-12T16:27:50.202Z,12.81
2022-11-12T16:31:15.206Z,12.80
2022-11-12T16:34:38.786Z,12.92
2022-11-12T16:38:01.120Z,12.94
2022-11-12T16:41:25.162Z,12.92
2022-11-12T16:44:48.109Z,12.99
2022-11-12T16:48:15.542Z,12.93
2022-11-12T16:51:37.944Z,12.70
2022-11-12T16:55:04.541Z,12.58
2022-11-12T16:58:28.807Z,12.59
2022-11-12T17:01:53.203Z,12.45
2022-11-12T17:05:17.414Z,12.27
2022-11-12T17:08:40.078Z,12.10
2022-11-12T17:12:03.815Z,12.04
2022-11-12T17:15:28.278Z,12.08
2022-11-12T17:18:53.942Z,12.13
2022-11-12T17:22:16.343Z,11.78
2022-11-12T17:25:38.525Z,11.68
2022-11-12T17:29:07.654Z,11.31
2022-11-12T17:32:31.625Z,11.36
2022-11-12T17:35:54.137Z,10.94
2022-11-12T17:39:16.197Z,10.88
2022-11-12T17:42:38.938Z,10.74
2022-11-12T17:46:02.088Z,10.93
2022-11-12T17:49:25.761Z,10.94
2022-11-12T17:52:47.851Z,10.74
2022-11-12T17:56:12.310Z,10.62
2022-11-12T17:59:34.713Z,10.82
2022-11-12T18:02:57.058Z,10.93
2022-11-12T18:06:23.472Z,11.22
2022-11-12T18:09:47.934Z,11.35
2022-11-12T18:13:09.840Z,11.25
2022-11-12T18:16:38.189Z,11.33
2022-11-12T18:20:02.288Z,11.24
2022-11-12T18:23:26.827Z,11.16
2022-11-12T18:26:49.328Z,10.68
2022-11-12T18:30:17.946Z,10.81
2022-11-12T18:33:41.410Z,10.70
2022-11-12T18:37:03.962Z,10.79
2022-11-12T18:40:28.010Z,10.58
2022-11-12T18:43:50.982Z,10.40
2022-11-12T18:47:12.950Z,10.26
2022-11-12T18:50:38.032Z,9.90
2022-11-12T18:54:00.128Z,9.72
2022-11-12T18:57:25.583Z,9.76
2022-11-12T19:00:47.555Z,9.80
2022-11-12T19:04:12.965Z,9.85
2022-11-12T19:07:34.638Z,9.99
2022-11-12T19:11:04.247Z,9.92
2022-11-12T19:14:27.751Z,9.94
2022-11-12T19:17:53.249Z,9.95
2022-11-12T19:21:18.332Z,9.97
2022-11-12T19:24:40.930Z,10.06
2022-11-12T19:28:03.411Z,10.16
2022-11-12T19:31:28.130Z,9.67
2022-11-12T19:34:50.229Z,9.88
2022-11-12T19:38:12.671Z,9.72
2022-11-12T19:41:35.594Z,9.76
2022-11-12T19:44:58.451Z,9.80
2022-11-12T19:48:23.151Z,9.99
2022-11-12T19:51:45.587Z,10.23
2022-11-12T19:55:08.463Z,10.25
2022-11-12T19:58:31.788Z,10.31
2022-11-12T20:01:54.046Z,10.28
2022-11-12T20:05:19.281Z,10.28
2022-11-12T20:08:43.192Z,10.31
2022-11-12T20:12:09.119Z,9.67
2022-11-12T20:15:31.295Z,9.79
2022-11-12T20:18:54.918Z,9.57
2022-11-12T20:22:18.429Z,9.70
2022-11-12T20:25:41.243Z,9.55
2022-11-12T20:29:07.545Z,9.51
2022-11-12T20:32:29.989Z,9.45
2022-11-12T20:35:51.745Z,9.49
2022-11-12T20:39:15.428Z,9.72
2022-11-12T20:42:37.386Z,9.51
2022-11-12T20:46:00.026Z,9.68
2022-11-12T20:49:21.608Z,9.76
2022-11-12T20:52:44.065Z,9.74
2022-11-12T20:56:09.894Z,9.95
2022-11-12T20:59:34.078Z,9.64
2022-11-12T21:02:56.823Z,9.67
2022-11-12T21:06:21.137Z,9.54
2022-11-12T21:09:43.217Z,9.16
2022-11-12T21:13:07.123Z,9.15
2022-11-12T21:16:29.157Z,8.71
2022-11-12T21:19:51.544Z,8.98
2022-11-12T21:23:13.722Z,9.35
2022-11-12T21:26:36.222Z,9.42
2022-11-12T21:30:02.677Z,9.55
2022-11-12T21:33:25.267Z,9.71
2022-11-12T21:36:47.218Z,9.59
2022-11-12T21:40:10.918Z,9.68
2022-11-12T21:43:36.457Z,9.50
2022-11-12T21:47:01.292Z,9.58
2022-11-12T21:50:23.779Z,9.63
2022-11-12T21:53:46.128Z,9.71
2022-11-12T21:57:08.104Z,9.74
2022-11-12T22:00:46.856Z,9.71
2022-11-12T22:04:14.205Z,9.42
2022-11-12T22:07:40.852Z,9.37
2022-11-12T22:11:04.717Z,9.57
2022-11-12T22:14:28.609Z,8.97
2022-11-12T22:17:50.467Z,9.18
2022-11-12T22:21:16.470Z,8.96
2022-11-12T22:24:39.969Z,8.73
2022-11-12T22:28:02.840Z,9.06
2022-11-12T22:31:28.150Z,9.23
2022-11-12T22:34:50.522Z,9.01
2022-11-12T22:38:15.387Z,9.31
2022-11-12T22:41:39.719Z,9.22
2022-11-12T22:45:02.112Z,8.56
2022-11-12T22:48:25.069Z,8.54
2022-11-12T22:51:47.433Z,8.72
2022-11-12T22:55:12.262Z,8.63
2022-11-12T22:58:37.427Z,8.84
2022-11-12T23:01:59.507Z,9.13
2022-11-12T23:05:21.517Z,8.89
2022-11-12T23:08:45.066Z,8.83
2022-11-12T23:12:09.043Z,8.66
2022-11-12T23:15:31.917Z,8.61
2022-11-12T23:18:55.084Z,8.74
2022-11-12T23:22:18.656Z,8.70
2022-11-12T23:25:40.866Z,8.60
2022-11-12T23:29:06.640Z,8.53
2022-11-12T23:32:29.075Z,8.64
2022-11-12T23:35:51.435Z,8.70
2022-11-12T23:39:14.722Z,8.59
2022-11-12T23:42:37.462Z,8.74
2022-11-12T23:46:04.194Z,8.83
2022-11-12T23:49:26.899Z,8.62
2022-11-12T23:52:49.166Z,8.62
2022-11-12T23:56:14.424Z,8.67
2022-11-12T23:59:36.308Z,8.62
